sensor_id;sensor_type;location;lat;lon;timestamp;temperature;humidity
22456;DHT22;11395;53.204;6.502;2023-03-23T00:01:07;22.70;60.10
22456;DHT22;11395;53.204;6.502;2023-03-23T00:03:36;22.70;60.10
22456;DHT22;11395;53.204;6.502;2023-03-23T00:06:03;22.60;60.10
22456;DHT22;11395;53.204;6.502;2023-03-23T00:08:33;22.60;60.10
22456;DHT22;11395;53.204;6.502;2023-03-23T00:11:06;22.60;60.20
22456;DHT22;11395;53.204;6.502;2023-03-23T00:13:33;22.60;60.20
22456;DHT22;11395;53.204;6.502;2023-03-23T00:15:59;22.50;60.20
22456;DHT22;11395;53.204;6.502;2023-03-23T00:18:26;22.50;60.30
22456;DHT22;11395;53.204;6.502;2023-03-23T00:20:54;22.50;60.30
22456;DHT22;11395;53.204;6.502;2023-03-23T00:23:24;22.50;60.40
22456;DHT22;11395;53.204;6.502;2023-03-23T00:25:55;22.50;60.40
22456;DHT22;11395;53.204;6.502;2023-03-23T00:28:26;22.50;60.50
22456;DHT22;11395;53.204;6.502;2023-03-23T00:31:04;22.40;60.40
22456;DHT22;11395;53.204;6.502;2023-03-23T00:33:37;22.40;61.30
22456;DHT22;11395;53.204;6.502;2023-03-23T00:36:13;22.40;60.50
22456;DHT22;11395;53.204;6.502;2023-03-23T00:38:40;22.40;60.50
22456;DHT22;11395;53.204;6.502;2023-03-23T00:41:10;22.30;60.50
22456;DHT22;11395;53.204;6.502;2023-03-23T00:43:37;22.30;60.50
22456;DHT22;11395;53.204;6.502;2023-03-23T00:46:05;22.30;60.60
22456;DHT22;11395;53.204;6.502;2023-03-23T00:48:36;22.30;60.60
22456;DHT22;11395;53.204;6.502;2023-03-23T00:51:07;22.20;60.60
22456;DHT22;11395;53.204;6.502;2023-03-23T00:53:41;22.20;60.60
22456;DHT22;11395;53.204;6.502;2023-03-23T00:56:08;22.20;60.60
22456;DHT22;11395;53.204;6.502;2023-03-23T00:58:35;22.20;60.70
22456;DHT22;11395;53.204;6.502;2023-03-23T01:01:02;22.20;60.70
22456;DHT22;11395;53.204;6.502;2023-03-23T01:03:28;22.10;60.60
22456;DHT22;11395;53.204;6.502;2023-03-23T01:06:02;22.10;60.70
22456;DHT22;11395;53.204;6.502;2023-03-23T01:08:29;22.10;60.70
22456;DHT22;11395;53.204;6.502;2023-03-23T01:11:03;22.10;60.80
22456;DHT22;11395;53.204;6.502;2023-03-23T01:13:31;22.10;60.80
22456;DHT22;11395;53.204;6.502;2023-03-23T01:15:58;22.00;60.70
22456;DHT22;11395;53.204;6.502;2023-03-23T01:18:24;22.00;60.80
22456;DHT22;11395;53.204;6.502;2023-03-23T01:20:50;22.00;61.70
22456;DHT22;11395;53.204;6.502;2023-03-23T01:23:16;22.00;60.90
22456;DHT22;11395;53.204;6.502;2023-03-23T01:25:43;21.90;60.80
22456;DHT22;11395;53.204;6.502;2023-03-23T01:28:11;21.90;60.90
22456;DHT22;11395;53.204;6.502;2023-03-23T01:30:37;21.90;60.90
22456;DHT22;11395;53.204;6.502;2023-03-23T01:33:04;21.90;60.90
22456;DHT22;11395;53.204;6.502;2023-03-23T01:35:30;21.90;61.00
22456;DHT22;11395;53.204;6.502;2023-03-23T01:37:56;21.80;61.00
22456;DHT22;11395;53.204;6.502;2023-03-23T01:40:23;21.80;61.00
22456;DHT22;11395;53.204;6.502;2023-03-23T01:42:49;21.80;61.00
22456;DHT22;11395;53.204;6.502;2023-03-23T01:47:49;21.80;61.10
22456;DHT22;11395;53.204;6.502;2023-03-23T01:50:19;21.80;61.00
22456;DHT22;11395;53.204;6.502;2023-03-23T01:52:50;21.70;61.10
22456;DHT22;11395;53.204;6.502;2023-03-23T01:55:18;21.70;61.10
22456;DHT22;11395;53.204;6.502;2023-03-23T01:57:45;21.70;61.10
22456;DHT22;11395;53.204;6.502;2023-03-23T02:00:14;21.70;61.20
22456;DHT22;11395;53.204;6.502;2023-03-23T02:02:46;21.70;61.20
22456;DHT22;11395;53.204;6.502;2023-03-23T02:05:30;21.70;61.30
22456;DHT22;11395;53.204;6.502;2023-03-23T02:08:00;21.70;61.20
22456;DHT22;11395;53.204;6.502;2023-03-23T02:10:31;21.60;61.30
22456;DHT22;11395;53.204;6.502;2023-03-23T02:12:59;21.60;61.30
22456;DHT22;11395;53.204;6.502;2023-03-23T02:20:52;21.60;61.40
22456;DHT22;11395;53.204;6.502;2023-03-23T02:23:31;21.50;61.40
22456;DHT22;11395;53.204;6.502;2023-03-23T02:26:03;21.50;61.40
22456;DHT22;11395;53.204;6.502;2023-03-23T02:34:48;21.40;61.40
22456;DHT22;11395;53.204;6.502;2023-03-23T02:37:23;21.40;61.50
22456;DHT22;11395;53.204;6.502;2023-03-23T02:40:24;21.40;61.50
22456;DHT22;11395;53.204;6.502;2023-03-23T02:42:54;21.40;61.60
22456;DHT22;11395;53.204;6.502;2023-03-23T02:45:24;21.40;61.60
22456;DHT22;11395;53.204;6.502;2023-03-23T02:47:54;21.40;61.60
22456;DHT22;11395;53.204;6.502;2023-03-23T02:50:23;21.30;61.60
22456;DHT22;11395;53.204;6.502;2023-03-23T02:52:52;21.30;61.60
22456;DHT22;11395;53.204;6.502;2023-03-23T02:55:19;21.30;61.60
22456;DHT22;11395;53.204;6.502;2023-03-23T02:57:46;21.30;61.60
22456;DHT22;11395;53.204;6.502;2023-03-23T03:00:16;21.30;61.60
22456;DHT22;11395;53.204;6.502;2023-03-23T03:02:49;21.30;61.70
22456;DHT22;11395;53.204;6.502;2023-03-23T03:05:56;21.30;61.70
22456;DHT22;11395;53.204;6.502;2023-03-23T03:08:23;21.20;61.70
22456;DHT22;11395;53.204;6.502;2023-03-23T03:10:58;21.30;61.70
22456;DHT22;11395;53.204;6.502;2023-03-23T03:16:17;21.20;61.80
22456;DHT22;11395;53.204;6.502;2023-03-23T03:18:52;21.20;61.70
22456;DHT22;11395;53.204;6.502;2023-03-23T03:21:25;21.20;61.80
22456;DHT22;11395;53.204;6.502;2023-03-23T03:23:57;21.10;61.70
22456;DHT22;11395;53.204;6.502;2023-03-23T03:26:28;21.20;61.80
22456;DHT22;11395;53.204;6.502;2023-03-23T03:29:00;21.20;61.80
22456;DHT22;11395;53.204;6.502;2023-03-23T03:31:30;21.10;61.80
22456;DHT22;11395;53.204;6.502;2023-03-23T03:33:58;21.10;61.80
22456;DHT22;11395;53.204;6.502;2023-03-23T03:36:30;21.10;61.70
22456;DHT22;11395;53.204;6.502;2023-03-23T03:39:09;21.10;61.80
22456;DHT22;11395;53.204;6.502;2023-03-23T03:41:49;21.10;61.80
22456;DHT22;11395;53.204;6.502;2023-03-23T03:44:16;21.10;63.00
22456;DHT22;11395;53.204;6.502;2023-03-23T03:46:42;21.00;62.30
22456;DHT22;11395;53.204;6.502;2023-03-23T03:49:10;21.00;62.40
22456;DHT22;11395;53.204;6.502;2023-03-23T03:51:40;21.00;62.10
22456;DHT22;11395;53.204;6.502;2023-03-23T03:54:08;21.00;62.00
22456;DHT22;11395;53.204;6.502;2023-03-23T03:56:34;21.00;62.60
22456;DHT22;11395;53.204;6.502;2023-03-23T03:59:26;21.00;62.10
22456;DHT22;11395;53.204;6.502;2023-03-23T04:02:16;21.00;62.70
22456;DHT22;11395;53.204;6.502;2023-03-23T04:04:47;21.00;62.10
22456;DHT22;11395;53.204;6.502;2023-03-23T04:07:14;21.00;62.50
22456;DHT22;11395;53.204;6.502;2023-03-23T04:09:43;20.90;62.50
22456;DHT22;11395;53.204;6.502;2023-03-23T04:12:13;21.90;62.70
22456;DHT22;11395;53.204;6.502;2023-03-23T04:15:03;20.90;62.40
22456;DHT22;11395;53.204;6.502;2023-03-23T04:17:34;20.90;62.10
22456;DHT22;11395;53.204;6.502;2023-03-23T04:20:02;20.90;63.80
22456;DHT22;11395;53.204;6.502;2023-03-23T04:22:34;20.80;62.70
22456;DHT22;11395;53.204;6.502;2023-03-23T04:25:02;20.80;62.70
22456;DHT22;11395;53.204;6.502;2023-03-23T04:27:34;20.80;62.30
22456;DHT22;11395;53.204;6.502;2023-03-23T04:30:03;20.80;62.30
22456;DHT22;11395;53.204;6.502;2023-03-23T04:32:59;20.80;62.20
22456;DHT22;11395;53.204;6.502;2023-03-23T04:35:28;20.80;63.40
22456;DHT22;11395;53.204;6.502;2023-03-23T04:38:15;20.80;62.70
22456;DHT22;11395;53.204;6.502;2023-03-23T04:40:48;20.90;63.00
22456;DHT22;11395;53.204;6.502;2023-03-23T04:43:32;20.90;62.50
22456;DHT22;11395;53.204;6.502;2023-03-23T04:46:17;21.00;62.80
22456;DHT22;11395;53.204;6.502;2023-03-23T04:48:45;21.10;62.80
22456;DHT22;11395;53.204;6.502;2023-03-23T04:51:22;21.20;62.50
22456;DHT22;11395;53.204;6.502;2023-03-23T04:53:52;21.30;61.80
22456;DHT22;11395;53.204;6.502;2023-03-23T04:56:19;21.40;61.60
22456;DHT22;11395;53.204;6.502;2023-03-23T04:58:46;21.50;62.80
22456;DHT22;11395;53.204;6.502;2023-03-23T05:01:31;21.60;62.30
22456;DHT22;11395;53.204;6.502;2023-03-23T05:04:10;21.70;61.10
22456;DHT22;11395;53.204;6.502;2023-03-23T05:06:39;21.70;61.00
22456;DHT22;11395;53.204;6.502;2023-03-23T05:09:12;21.80;61.00
22456;DHT22;11395;53.204;6.502;2023-03-23T05:11:39;21.80;60.90
22456;DHT22;11395;53.204;6.502;2023-03-23T05:14:06;21.80;60.80
22456;DHT22;11395;53.204;6.502;2023-03-23T05:16:32;21.90;61.60
22456;DHT22;11395;53.204;6.502;2023-03-23T05:19:01;21.90;60.70
22456;DHT22;11395;53.204;6.502;2023-03-23T05:21:29;21.90;60.70
22456;DHT22;11395;53.204;6.502;2023-03-23T05:23:56;22.00;60.50
22456;DHT22;11395;53.204;6.502;2023-03-23T05:26:27;22.10;60.40
22456;DHT22;11395;53.204;6.502;2023-03-23T05:29:03;22.20;60.30
22456;DHT22;11395;53.204;6.502;2023-03-23T05:31:40;22.30;60.10
22456;DHT22;11395;53.204;6.502;2023-03-23T05:34:06;22.40;60.10
22456;DHT22;11395;53.204;6.502;2023-03-23T05:36:45;22.40;59.90
22456;DHT22;11395;53.204;6.502;2023-03-23T05:39:31;22.60;59.80
22456;DHT22;11395;53.204;6.502;2023-03-23T05:42:22;22.60;59.70
22456;DHT22;11395;53.204;6.502;2023-03-23T05:45:02;22.80;59.60
22456;DHT22;11395;53.204;6.502;2023-03-23T05:47:28;22.90;59.50
22456;DHT22;11395;53.204;6.502;2023-03-23T05:49:58;23.00;59.40
22456;DHT22;11395;53.204;6.502;2023-03-23T05:52:28;23.10;59.20
22456;DHT22;11395;53.204;6.502;2023-03-23T05:54:54;23.30;59.10
22456;DHT22;11395;53.204;6.502;2023-03-23T05:57:22;23.40;58.90
22456;DHT22;11395;53.204;6.502;2023-03-23T05:59:59;23.50;58.70
22456;DHT22;11395;53.204;6.502;2023-03-23T06:02:26;23.70;59.50
22456;DHT22;11395;53.204;6.502;2023-03-23T06:04:55;23.70;58.60
22456;DHT22;11395;53.204;6.502;2023-03-23T06:07:29;23.80;58.60
22456;DHT22;11395;53.204;6.502;2023-03-23T06:10:03;23.90;58.60
22456;DHT22;11395;53.204;6.502;2023-03-23T06:12:43;24.00;58.50
22456;DHT22;11395;53.204;6.502;2023-03-23T06:15:10;24.10;58.40
22456;DHT22;11395;53.204;6.502;2023-03-23T06:18:07;24.10;58.30
22456;DHT22;11395;53.204;6.502;2023-03-23T06:20:42;24.20;58.30
22456;DHT22;11395;53.204;6.502;2023-03-23T06:23:32;24.20;58.20
22456;DHT22;11395;53.204;6.502;2023-03-23T06:26:03;24.20;58.10
22456;DHT22;11395;53.204;6.502;2023-03-23T06:28:32;24.30;57.90
22456;DHT22;11395;53.204;6.502;2023-03-23T06:31:04;24.30;57.80
22456;DHT22;11395;53.204;6.502;2023-03-23T06:33:37;24.30;57.70
22456;DHT22;11395;53.204;6.502;2023-03-23T06:36:23;24.20;57.70
22456;DHT22;11395;53.204;6.502;2023-03-23T06:39:31;24.20;57.70
22456;DHT22;11395;53.204;6.502;2023-03-23T06:42:23;24.20;57.80
22456;DHT22;11395;53.204;6.502;2023-03-23T06:45:12;24.20;57.80
22456;DHT22;11395;53.204;6.502;2023-03-23T06:47:39;24.10;58.00
22456;DHT22;11395;53.204;6.502;2023-03-23T06:50:06;24.10;58.00
22456;DHT22;11395;53.204;6.502;2023-03-23T06:52:34;24.10;57.90
22456;DHT22;11395;53.204;6.502;2023-03-23T06:55:00;24.10;58.10
22456;DHT22;11395;53.204;6.502;2023-03-23T06:57:27;24.00;57.90
22456;DHT22;11395;53.204;6.502;2023-03-23T06:59:54;24.00;58.00
22456;DHT22;11395;53.204;6.502;2023-03-23T07:02:23;24.00;58.70
22456;DHT22;11395;53.204;6.502;2023-03-23T07:04:51;24.00;58.10
22456;DHT22;11395;53.204;6.502;2023-03-23T07:07:21;23.90;58.00
22456;DHT22;11395;53.204;6.502;2023-03-23T07:10:02;23.90;58.10
22456;DHT22;11395;53.204;6.502;2023-03-23T07:12:29;23.90;58.20
22456;DHT22;11395;53.204;6.502;2023-03-23T07:14:55;23.90;58.30
22456;DHT22;11395;53.204;6.502;2023-03-23T07:17:24;23.90;59.20
22456;DHT22;11395;53.204;6.502;2023-03-23T07:20:05;23.90;59.20
22456;DHT22;11395;53.204;6.502;2023-03-23T07:22:32;24.00;58.30
22456;DHT22;11395;53.204;6.502;2023-03-23T07:25:07;24.00;59.30
22456;DHT22;11395;53.204;6.502;2023-03-23T07:27:49;24.10;58.80
22456;DHT22;11395;53.204;6.502;2023-03-23T07:30:18;24.20;58.10
22456;DHT22;11395;53.204;6.502;2023-03-23T07:32:44;24.20;58.80
22456;DHT22;11395;53.204;6.502;2023-03-23T07:35:11;24.20;58.40
22456;DHT22;11395;53.204;6.502;2023-03-23T07:38:01;24.20;58.10
22456;DHT22;11395;53.204;6.502;2023-03-23T07:40:28;24.30;58.20
22456;DHT22;11395;53.204;6.502;2023-03-23T07:43:01;24.40;57.80
22456;DHT22;11395;53.204;6.502;2023-03-23T07:45:38;24.40;57.70
22456;DHT22;11395;53.204;6.502;2023-03-23T07:48:04;24.40;57.70
22456;DHT22;11395;53.204;6.502;2023-03-23T07:50:31;24.40;57.60
22456;DHT22;11395;53.204;6.502;2023-03-23T07:52:59;24.40;57.60
22456;DHT22;11395;53.204;6.502;2023-03-23T07:55:27;24.50;57.60
22456;DHT22;11395;53.204;6.502;2023-03-23T07:58:03;24.50;57.90
22456;DHT22;11395;53.204;6.502;2023-03-23T08:00:30;24.40;58.30
22456;DHT22;11395;53.204;6.502;2023-03-23T08:02:57;24.50;58.10
22456;DHT22;11395;53.204;6.502;2023-03-23T08:05:25;24.50;57.70
22456;DHT22;11395;53.204;6.502;2023-03-23T08:08:11;24.40;57.60
22456;DHT22;11395;53.204;6.502;2023-03-23T08:10:56;24.50;57.60
22456;DHT22;11395;53.204;6.502;2023-03-23T08:13:52;24.50;57.60
22456;DHT22;11395;53.204;6.502;2023-03-23T08:16:38;24.40;57.50
22456;DHT22;11395;53.204;6.502;2023-03-23T08:19:31;24.40;57.60
22456;DHT22;11395;53.204;6.502;2023-03-23T08:22:20;24.40;57.60
22456;DHT22;11395;53.204;6.502;2023-03-23T08:25:09;24.40;57.60
22456;DHT22;11395;53.204;6.502;2023-03-23T08:27:59;24.40;57.70
22456;DHT22;11395;53.204;6.502;2023-03-23T08:30:47;24.40;58.10
22456;DHT22;11395;53.204;6.502;2023-03-23T08:33:28;24.40;58.20
22456;DHT22;11395;53.204;6.502;2023-03-23T08:36:15;24.40;58.20
22456;DHT22;11395;53.204;6.502;2023-03-23T08:39:14;24.40;58.20
22456;DHT22;11395;53.204;6.502;2023-03-23T08:41:53;24.30;58.20
22456;DHT22;11395;53.204;6.502;2023-03-23T08:44:39;24.40;58.30
22456;DHT22;11395;53.204;6.502;2023-03-23T08:47:17;24.40;58.30
22456;DHT22;11395;53.204;6.502;2023-03-23T08:50:06;24.40;58.10
22456;DHT22;11395;53.204;6.502;2023-03-23T08:52:49;24.40;58.10
22456;DHT22;11395;53.204;6.502;2023-03-23T08:55:29;24.40;58.00
22456;DHT22;11395;53.204;6.502;2023-03-23T08:58:36;24.40;58.00
22456;DHT22;11395;53.204;6.502;2023-03-23T09:01:08;24.40;58.00
22456;DHT22;11395;53.204;6.502;2023-03-23T09:03:55;24.50;57.90
22456;DHT22;11395;53.204;6.502;2023-03-23T09:06:27;24.50;57.90
22456;DHT22;11395;53.204;6.502;2023-03-23T09:08:53;24.50;57.90
22456;DHT22;11395;53.204;6.502;2023-03-23T09:11:22;24.50;57.90
22456;DHT22;11395;53.204;6.502;2023-03-23T09:13:48;24.50;57.80
22456;DHT22;11395;53.204;6.502;2023-03-23T09:16:14;24.40;57.70
22456;DHT22;11395;53.204;6.502;2023-03-23T09:18:40;24.40;57.70
22456;DHT22;11395;53.204;6.502;2023-03-23T09:21:06;24.40;57.80
22456;DHT22;11395;53.204;6.502;2023-03-23T09:23:34;24.40;57.70
22456;DHT22;11395;53.204;6.502;2023-03-23T09:26:01;24.40;57.70
22456;DHT22;11395;53.204;6.502;2023-03-23T09:28:28;24.40;57.70
22456;DHT22;11395;53.204;6.502;2023-03-23T09:30:55;24.30;57.70
22456;DHT22;11395;53.204;6.502;2023-03-23T09:33:25;24.30;57.90
22456;DHT22;11395;53.204;6.502;2023-03-23T09:35:51;24.40;57.80
22456;DHT22;11395;53.204;6.502;2023-03-23T09:38:18;24.30;57.70
22456;DHT22;11395;53.204;6.502;2023-03-23T09:48:55;24.50;57.50
22456;DHT22;11395;53.204;6.502;2023-03-23T09:53:57;24.60;57.30
22456;DHT22;11395;53.204;6.502;2023-03-23T09:56:27;24.60;57.30
22456;DHT22;11395;53.204;6.502;2023-03-23T09:58:58;24.60;57.30
22456;DHT22;11395;53.204;6.502;2023-03-23T10:01:31;24.60;57.10
22456;DHT22;11395;53.204;6.502;2023-03-23T10:04:27;24.60;57.20
22456;DHT22;11395;53.204;6.502;2023-03-23T10:06:50;24.70;57.10
22456;DHT22;11395;53.204;6.502;2023-03-23T10:09:18;24.80;57.10
22456;DHT22;11395;53.204;6.502;2023-03-23T10:14:46;24.90;56.80
22456;DHT22;11395;53.204;6.502;2023-03-23T10:17:22;24.90;56.70
22456;DHT22;11395;53.204;6.502;2023-03-23T10:22:42;25.00;56.60
22456;DHT22;11395;53.204;6.502;2023-03-23T10:25:15;25.00;56.40
22456;DHT22;11395;53.204;6.502;2023-03-23T10:30:29;24.90;56.30
22456;DHT22;11395;53.204;6.502;2023-03-23T10:38:19;24.70;56.50
22456;DHT22;11395;53.204;6.502;2023-03-23T10:40:51;24.60;56.50
22456;DHT22;11395;53.204;6.502;2023-03-23T10:43:19;24.50;56.40
22456;DHT22;11395;53.204;6.502;2023-03-23T10:45:55;24.40;56.60
22456;DHT22;11395;53.204;6.502;2023-03-23T10:48:37;24.40;56.70
22456;DHT22;11395;53.204;6.502;2023-03-23T10:51:09;24.20;56.70
22456;DHT22;11395;53.204;6.502;2023-03-23T10:53:44;24.20;56.90
22456;DHT22;11395;53.204;6.502;2023-03-23T10:56:24;24.20;57.00
22456;DHT22;11395;53.204;6.502;2023-03-23T10:58:51;24.10;57.10
22456;DHT22;11395;53.204;6.502;2023-03-23T11:01:19;24.10;57.30
22456;DHT22;11395;53.204;6.502;2023-03-23T11:03:48;24.20;57.50
22456;DHT22;11395;53.204;6.502;2023-03-23T11:06:24;24.20;57.50
22456;DHT22;11395;53.204;6.502;2023-03-23T11:09:01;24.20;57.60
22456;DHT22;11395;53.204;6.502;2023-03-23T11:11:38;24.40;57.70
22456;DHT22;11395;53.204;6.502;2023-03-23T11:14:26;24.50;57.50
22456;DHT22;11395;53.204;6.502;2023-03-23T11:16:55;24.60;57.50
22456;DHT22;11395;53.204;6.502;2023-03-23T11:19:26;24.70;57.40
22456;DHT22;11395;53.204;6.502;2023-03-23T11:21:54;24.80;57.30
22456;DHT22;11395;53.204;6.502;2023-03-23T11:24:23;24.90;57.10
22456;DHT22;11395;53.204;6.502;2023-03-23T11:26:51;25.00;57.00
22456;DHT22;11395;53.204;6.502;2023-03-23T11:29:22;25.00;56.80
22456;DHT22;11395;53.204;6.502;2023-03-23T11:31:52;25.10;56.80
22456;DHT22;11395;53.204;6.502;2023-03-23T11:34:25;25.10;56.70
22456;DHT22;11395;53.204;6.502;2023-03-23T11:37:01;25.10;56.60
22456;DHT22;11395;53.204;6.502;2023-03-23T11:39:33;25.10;56.60
22456;DHT22;11395;53.204;6.502;2023-03-23T11:42:01;25.10;56.70
22456;DHT22;11395;53.204;6.502;2023-03-23T11:44:43;25.10;56.60
22456;DHT22;11395;53.204;6.502;2023-03-23T11:50:00;25.20;56.70
22456;DHT22;11395;53.204;6.502;2023-03-23T11:52:58;25.30;57.40
22456;DHT22;11395;53.204;6.502;2023-03-23T11:55:29;25.20;56.60
22456;DHT22;11395;53.204;6.502;2023-03-23T11:58:02;25.20;56.60
22456;DHT22;11395;53.204;6.502;2023-03-23T12:00:31;25.20;56.60
22456;DHT22;11395;53.204;6.502;2023-03-23T12:03:12;25.30;56.60
22456;DHT22;11395;53.204;6.502;2023-03-23T12:05:55;25.30;56.60
22456;DHT22;11395;53.204;6.502;2023-03-23T12:14:22;25.40;56.70
22456;DHT22;11395;53.204;6.502;2023-03-23T12:19:51;25.40;56.60
22456;DHT22;11395;53.204;6.502;2023-03-23T12:22:33;25.40;56.60
22456;DHT22;11395;53.204;6.502;2023-03-23T12:36:14;25.40;56.60
22456;DHT22;11395;53.204;6.502;2023-03-23T12:44:43;25.40;57.10
22456;DHT22;11395;53.204;6.502;2023-03-23T12:47:42;25.40;57.10
22456;DHT22;11395;53.204;6.502;2023-03-23T12:50:27;25.40;57.10
22456;DHT22;11395;53.204;6.502;2023-03-23T12:53:02;25.30;57.10
22456;DHT22;11395;53.204;6.502;2023-03-23T12:58:24;25.30;57.00
22456;DHT22;11395;53.204;6.502;2023-03-23T13:01:04;25.30;57.00
22456;DHT22;11395;53.204;6.502;2023-03-23T13:03:55;25.30;57.00
22456;DHT22;11395;53.204;6.502;2023-03-23T13:06:38;25.30;57.00
22456;DHT22;11395;53.204;6.502;2023-03-23T13:09:27;25.30;57.10
22456;DHT22;11395;53.204;6.502;2023-03-23T13:11:58;25.30;57.10
22456;DHT22;11395;53.204;6.502;2023-03-23T13:14:53;25.30;57.00
22456;DHT22;11395;53.204;6.502;2023-03-23T13:23:05;25.10;56.90
22456;DHT22;11395;53.204;6.502;2023-03-23T13:28:30;25.10;57.10
22456;DHT22;11395;53.204;6.502;2023-03-23T13:31:23;25.10;57.10
22456;DHT22;11395;53.204;6.502;2023-03-23T13:33:53;25.00;57.10
22456;DHT22;11395;53.204;6.502;2023-03-23T13:36:29;25.10;57.20
22456;DHT22;11395;53.204;6.502;2023-03-23T13:38:58;25.00;57.20
22456;DHT22;11395;53.204;6.502;2023-03-23T13:41:25;25.00;57.30
22456;DHT22;11395;53.204;6.502;2023-03-23T13:44:07;25.00;57.30
22456;DHT22;11395;53.204;6.502;2023-03-23T13:46:41;24.90;57.30
22456;DHT22;11395;53.204;6.502;2023-03-23T13:49:26;24.90;57.30
22456;DHT22;11395;53.204;6.502;2023-03-23T13:52:17;24.90;57.40
22456;DHT22;11395;53.204;6.502;2023-03-23T13:54:46;24.90;57.40
22456;DHT22;11395;53.204;6.502;2023-03-23T13:58:25;24.90;57.40
22456;DHT22;11395;53.204;6.502;2023-03-23T14:03:18;24.80;57.40
22456;DHT22;11395;53.204;6.502;2023-03-23T14:11:10;24.80;57.50
22456;DHT22;11395;53.204;6.502;2023-03-23T14:13:44;24.80;57.50
22456;DHT22;11395;53.204;6.502;2023-03-23T14:16:21;24.80;57.50
22456;DHT22;11395;53.204;6.502;2023-03-23T14:18:55;24.80;57.60
22456;DHT22;11395;53.204;6.502;2023-03-23T14:21:48;24.80;57.70
22456;DHT22;11395;53.204;6.502;2023-03-23T14:24:21;24.70;57.60
22456;DHT22;11395;53.204;6.502;2023-03-23T14:26:50;24.70;57.60
22456;DHT22;11395;53.204;6.502;2023-03-23T14:29:19;24.70;57.60
22456;DHT22;11395;53.204;6.502;2023-03-23T14:31:52;24.70;57.60
22456;DHT22;11395;53.204;6.502;2023-03-23T14:34:20;24.70;57.70
22456;DHT22;11395;53.204;6.502;2023-03-23T14:36:47;24.70;57.80
22456;DHT22;11395;53.204;6.502;2023-03-23T14:42:00;24.70;57.90
22456;DHT22;11395;53.204;6.502;2023-03-23T14:44:35;24.70;57.90
22456;DHT22;11395;53.204;6.502;2023-03-23T14:47:05;24.70;57.90
22456;DHT22;11395;53.204;6.502;2023-03-23T14:49:38;24.60;58.00
22456;DHT22;11395;53.204;6.502;2023-03-23T14:52:11;24.60;57.90
22456;DHT22;11395;53.204;6.502;2023-03-23T14:54:38;24.60;58.00
22456;DHT22;11395;53.204;6.502;2023-03-23T14:59:46;24.60;58.10
22456;DHT22;11395;53.204;6.502;2023-03-23T15:02:22;24.60;58.10
22456;DHT22;11395;53.204;6.502;2023-03-23T15:05:10;24.60;58.20
22456;DHT22;11395;53.204;6.502;2023-03-23T15:07:39;24.60;58.20
22456;DHT22;11395;53.204;6.502;2023-03-23T15:10:08;24.50;58.30
22456;DHT22;11395;53.204;6.502;2023-03-23T15:12:37;24.60;58.40
22456;DHT22;11395;53.204;6.502;2023-03-23T15:15:06;24.60;58.50
22456;DHT22;11395;53.204;6.502;2023-03-23T15:17:36;24.60;58.50
22456;DHT22;11395;53.204;6.502;2023-03-23T15:20:19;24.60;58.50
22456;DHT22;11395;53.204;6.502;2023-03-23T15:22:48;24.50;57.90
22456;DHT22;11395;53.204;6.502;2023-03-23T15:25:30;24.50;57.40
22456;DHT22;11395;53.204;6.502;2023-03-23T15:30:33;24.40;57.30
22456;DHT22;11395;53.204;6.502;2023-03-23T15:33:11;24.30;57.40
22456;DHT22;11395;53.204;6.502;2023-03-23T15:35:47;24.30;57.50
22456;DHT22;11395;53.204;6.502;2023-03-23T15:38:30;24.20;57.50
22456;DHT22;11395;53.204;6.502;2023-03-23T15:40:59;24.20;57.50
22456;DHT22;11395;53.204;6.502;2023-03-23T15:43:52;24.20;57.60
22456;DHT22;11395;53.204;6.502;2023-03-23T15:46:23;24.10;57.70
22456;DHT22;11395;53.204;6.502;2023-03-23T15:51:26;24.10;57.70
22456;DHT22;11395;53.204;6.502;2023-03-23T15:53:54;24.10;57.70
22456;DHT22;11395;53.204;6.502;2023-03-23T15:56:21;24.10;57.80
22456;DHT22;11395;53.204;6.502;2023-03-23T16:08:50;24.80;58.30
22456;DHT22;11395;53.204;6.502;2023-03-23T16:11:20;23.90;58.50
22456;DHT22;11395;53.204;6.502;2023-03-23T16:13:47;23.80;58.00
22456;DHT22;11395;53.204;6.502;2023-03-23T16:16:19;23.90;58.40
22456;DHT22;11395;53.204;6.502;2023-03-23T16:18:47;23.80;58.00
22456;DHT22;11395;53.204;6.502;2023-03-23T16:21:13;23.80;58.70
22456;DHT22;11395;53.204;6.502;2023-03-23T16:23:39;23.80;58.50
22456;DHT22;11395;53.204;6.502;2023-03-23T16:26:09;23.80;57.80
22456;DHT22;11395;53.204;6.502;2023-03-23T16:28:36;23.70;57.40
22456;DHT22;11395;53.204;6.502;2023-03-23T16:31:02;23.70;57.50
22456;DHT22;11395;53.204;6.502;2023-03-23T16:33:28;23.70;57.70
22456;DHT22;11395;53.204;6.502;2023-03-23T16:35:55;23.60;57.70
22456;DHT22;11395;53.204;6.502;2023-03-23T16:38:23;23.60;58.20
22456;DHT22;11395;53.204;6.502;2023-03-23T16:40:50;23.60;58.00
22456;DHT22;11395;53.204;6.502;2023-03-23T16:43:17;23.60;58.30
22456;DHT22;11395;53.204;6.502;2023-03-23T16:45:45;23.60;58.40
22456;DHT22;11395;53.204;6.502;2023-03-23T16:48:13;23.70;58.60
22456;DHT22;11395;53.204;6.502;2023-03-23T16:50:39;23.70;58.60
22456;DHT22;11395;53.204;6.502;2023-03-23T16:53:07;23.70;58.50
22456;DHT22;11395;53.204;6.502;2023-03-23T16:55:35;23.80;58.60
22456;DHT22;11395;53.204;6.502;2023-03-23T16:58:02;23.80;58.50
22456;DHT22;11395;53.204;6.502;2023-03-23T17:00:29;23.80;58.50
22456;DHT22;11395;53.204;6.502;2023-03-23T17:02:55;23.90;58.60
22456;DHT22;11395;53.204;6.502;2023-03-23T17:05:24;23.90;58.50
22456;DHT22;11395;53.204;6.502;2023-03-23T17:07:51;23.90;58.50
22456;DHT22;11395;53.204;6.502;2023-03-23T17:10:18;23.90;58.50
22456;DHT22;11395;53.204;6.502;2023-03-23T17:12:44;23.90;58.60
22456;DHT22;11395;53.204;6.502;2023-03-23T17:15:10;23.90;58.70
22456;DHT22;11395;53.204;6.502;2023-03-23T17:17:37;23.90;59.20
22456;DHT22;11395;53.204;6.502;2023-03-23T17:20:04;23.90;58.80
22456;DHT22;11395;53.204;6.502;2023-03-23T17:22:31;23.90;58.50
22456;DHT22;11395;53.204;6.502;2023-03-23T17:24:57;23.90;58.50
22456;DHT22;11395;53.204;6.502;2023-03-23T17:27:24;23.90;58.30
22456;DHT22;11395;53.204;6.502;2023-03-23T17:29:50;23.90;58.30
22456;DHT22;11395;53.204;6.502;2023-03-23T17:32:17;23.80;58.40
22456;DHT22;11395;53.204;6.502;2023-03-23T17:34:43;23.80;58.50
22456;DHT22;11395;53.204;6.502;2023-03-23T17:37:10;23.80;58.70
22456;DHT22;11395;53.204;6.502;2023-03-23T17:39:36;23.80;58.70
22456;DHT22;11395;53.204;6.502;2023-03-23T17:42:02;23.70;58.50
22456;DHT22;11395;53.204;6.502;2023-03-23T17:44:29;23.70;58.60
22456;DHT22;11395;53.204;6.502;2023-03-23T17:46:55;23.70;58.70
22456;DHT22;11395;53.204;6.502;2023-03-23T17:49:22;23.70;58.80
22456;DHT22;11395;53.204;6.502;2023-03-23T17:51:49;23.60;58.80
22456;DHT22;11395;53.204;6.502;2023-03-23T17:54:15;23.60;59.00
22456;DHT22;11395;53.204;6.502;2023-03-23T17:56:41;23.60;59.00